Time;durP1;ratioP1;P1;durP2;ratioP2;P2;SDS_P1;SDS_P2;PMS_P1;PMS_P2;Temp;Humidity;BMP_temperature;BMP_pressure;BME280_temperature;BME280_humidity;BME280_pressure;Samples;Min_cycle;Max_cycle;Signal;HPM_P1;HPM_P2
2023/06/24 00:00:33;;;;;;;;;;;;;;;;;;5052200;28;19975;-61
2023/06/24 00:03:02;;;;;;;;;;;;;;;;;;5051855;28;20019;-61
2023/06/24 00:05:29;;;;;;;;;;;;;;;;;;5051770;28;19925;-61
2023/06/24 00:07:57;;;;;;;;;;;;;;;;;;5052115;28;19974;-61
2023/06/24 00:10:23;;;;;;;;;;;;;;;;;;5051827;28;19924;-61
2023/06/24 00:12:49;;;;;;;;;;;;;;;;;;5052073;28;19928;-61
2023/06/24 00:15:16;;;;;;;;;;;;;;;;;;5052565;28;19928;-61
2023/06/24 00:17:42;;;;;;;;;;;;;;;;;;5056063;28;19990;-62
2023/06/24 00:20:10;;;;;;;;;;;;;;;;;;5055984;28;19921;-61
2023/06/24 00:22:37;;;;;;;;;;;;;;;;;;5055665;28;19924;-60
2023/06/24 00:25:05;;;;;;;;;;;;;;;;;;5055832;28;19975;-61
2023/06/24 00:27:31;;;;;;;;;;;;;;;;;;5055735;28;19925;-61
2023/06/24 00:29:57;;;;;;;;;;;;;;;;;;5055810;28;19925;-61
2023/06/24 00:32:24;;;;;;;;;;;;;;;;;;5055483;28;20331;-61
2023/06/24 00:34:50;;;;;;;;;;;;;;;;;;5055594;28;20399;-61
2023/06/24 00:37:17;;;;;;;;;;;;;;;;;;5055477;28;19924;-61
2023/06/24 00:39:43;;;;;;;;;;;;;;;;;;5055591;28;19931;-61
2023/06/24 00:42:09;;;;;;;;;;;;;;;;;;5055657;28;19925;-61
2023/06/24 00:44:37;;;;;;;;;;;;;;;;;;5055678;28;19924;-62
2023/06/24 00:47:03;;;;;;;;;;;;;;;;;;5055531;28;20391;-61
2023/06/24 00:49:30;;;;;;;;;;;;;;;;;;5054979;28;19932;-61
2023/06/24 00:51:56;;;;;;;;;;;;;;;;;;5055438;28;19924;-62
2023/06/24 00:54:30;;;;;;;;;;;;;;;;;;5055045;28;19920;-61
2023/06/24 00:56:57;;;;;;;;;;;;;;;;;;5050071;28;19932;-61
2023/06/24 00:59:23;;;;;;;;;;;;;;;;;;5054781;28;19921;-61
2023/06/24 01:01:52;;;;;;;;;;;;;;;;;;5044033;28;21209;-61
2023/06/24 01:04:19;;;;;;;;;;;;;;;;;;5053873;28;19924;-61
2023/06/24 01:06:46;;;;;;;;;;;;;;;;;;5054786;28;20069;-61
2023/06/24 01:09:12;;;;;;;;;;;;;;;;;;5053763;28;19931;-62
2023/06/24 01:11:39;;;;;;;;;;;;;;;;;;5054670;28;20343;-61
2023/06/24 01:14:05;;;;;;;;;;;;;;;;;;5054983;28;20303;-61
2023/06/24 01:16:31;;;;;;;;;;;;;;;;;;5055026;28;19979;-62
2023/06/24 01:19:00;;;;;;;;;;;;;;;;;;5054879;28;19931;-61
2023/06/24 01:21:26;;;;;;;;;;;;;;;;;;5054800;28;19979;-61
2023/06/24 01:23:53;;;;;;;;;;;;;;;;;;5054805;28;19921;-61
2023/06/24 01:26:19;;;;;;;;;;;;;;;;;;5055022;28;19921;-61
2023/06/24 01:28:46;;;;;;;;;;;;;;;;;;5053864;28;19925;-61
2023/06/24 01:31:12;;;;;;;;;;;;;;;;;;5054435;28;19979;-61
2023/06/24 01:33:39;;;;;;;;;;;;;;;;;;5054354;28;19924;-61
2023/06/24 01:36:06;;;;;;;;;;;;;;;;;;5054246;28;19920;-61
2023/06/24 01:38:32;;;;;;;;;;;;;;;;;;5054533;28;19924;-61
2023/06/24 01:40:59;;;;;;;;;;;;;;;;;;5054394;28;19924;-61
2023/06/24 01:43:25;;;;;;;;;;;;;;;;;;5054502;28;19920;-61
2023/06/24 01:45:52;;;;;;;;;;;;;;;;;;5054259;28;19925;-61
2023/06/24 01:48:18;;;;;;;;;;;;;;;;;;5054177;28;19925;-61
2023/06/24 01:50:44;;;;;;;;;;;;;;;;;;5054313;28;19924;-61
2023/06/24 01:53:11;;;;;;;;;;;;;;;;;;5054241;28;19925;-61
2023/06/24 01:55:37;;;;;;;;;;;;;;;;;;5054273;28;19925;-61
2023/06/24 01:58:03;;;;;;;;;;;;;;;;;;5054101;28;19924;-61
2023/06/24 02:00:30;;;;;;;;;;;;;;;;;;5053862;28;20430;-62
2023/06/24 02:02:56;;;;;;;;;;;;;;;;;;5053670;28;19978;-61
2023/06/24 02:05:23;;;;;;;;;;;;;;;;;;5054141;28;19963;-61
2023/06/24 02:07:49;;;;;;;;;;;;;;;;;;5054125;28;20008;-61
2023/06/24 02:10:15;;;;;;;;;;;;;;;;;;5053847;28;19921;-61
2023/06/24 02:12:42;;;;;;;;;;;;;;;;;;5053803;28;19929;-61
2023/06/24 02:15:08;;;;;;;;;;;;;;;;;;5047108;28;20365;-60
2023/06/24 02:17:35;;;;;;;;;;;;;;;;;;5053667;28;19948;-61
2023/06/24 02:20:01;;;;;;;;;;;;;;;;;;5053791;28;19925;-61
2023/06/24 02:22:27;;;;;;;;;;;;;;;;;;5053468;28;19920;-61
2023/06/24 02:24:54;;;;;;;;;;;;;;;;;;5053395;28;19928;-61
2023/06/24 02:27:20;;;;;;;;;;;;;;;;;;5053270;28;19920;-61
2023/06/24 02:29:46;;;;;;;;;;;;;;;;;;5053384;28;20021;-62
2023/06/24 02:32:13;;;;;;;;;;;;;;;;;;5053075;28;19932;-61
2023/06/24 02:34:39;;;;;;;;;;;;;;;;;;5053458;28;19928;-61
2023/06/24 02:37:05;;;;;;;;;;;;;;;;;;5053359;28;19932;-61
2023/06/24 02:39:32;;;;;;;;;;;;;;;;;;5052158;28;20007;-61
2023/06/24 02:41:58;;;;;;;;;;;;;;;;;;5053408;28;20334;-61
2023/06/24 02:44:24;;;;;;;;;;;;;;;;;;5051728;28;19978;-60
2023/06/24 02:46:51;;;;;;;;;;;;;;;;;;5052957;28;19925;-61
2023/06/24 02:49:17;;;;;;;;;;;;;;;;;;5052620;28;19975;-62
2023/06/24 02:51:44;;;;;;;;;;;;;;;;;;5053185;28;19932;-61
2023/06/24 02:54:12;;;;;;;;;;;;;;;;;;5053118;28;19947;-61
2023/06/24 02:56:41;;;;;;;;;;;;;;;;;;5053085;28;19925;-61
2023/06/24 02:59:08;;;;;;;;;;;;;;;;;;5052694;28;20335;-61
2023/06/24 03:01:38;;;;;;;;;;;;;;;;;;5052915;28;19925;-61
2023/06/24 03:04:05;;;;;;;;;;;;;;;;;;5052730;28;19960;-61
2023/06/24 03:06:31;;;;;;;;;;;;;;;;;;5052573;28;19999;-61
2023/06/24 03:08:58;;;;;;;;;;;;;;;;;;5052603;28;19931;-61
2023/06/24 03:11:24;;;;;;;;;;;;;;;;;;5052795;28;19925;-61
2023/06/24 03:13:50;;;;;;;;;;;;;;;;;;5052486;28;19978;-61
2023/06/24 03:16:17;;;;;;;;;;;;;;;;;;5052661;28;19928;-61
2023/06/24 03:18:43;;;;;;;;;;;;;;;;;;5052901;28;19928;-61
2023/06/24 03:21:09;;;;;;;;;;;;;;;;;;5052381;28;19935;-61
2023/06/24 03:23:36;;;;;;;;;;;;;;;;;;5052602;28;19932;-61
2023/06/24 03:26:05;;;;;;;;;;;;;;;;;;5052393;28;19936;-62
2023/06/24 03:28:32;;;;;;;;;;;;;;;;;;5052289;28;19920;-61
2023/06/24 03:30:58;;;;;;;;;;;;;;;;;;5052483;28;19924;-61
2023/06/24 03:33:26;;;;;;;;;;;;;;;;;;5051825;28;19932;-61
2023/06/24 03:35:53;;;;;;;;;;;;;;;;;;5039538;28;19929;-62
2023/06/24 03:38:19;;;;;;;;;;;;;;;;;;5052333;28;19921;-61
2023/06/24 03:40:46;;;;;;;;;;;;;;;;;;5052387;28;19971;-61
2023/06/24 03:43:12;;;;;;;;;;;;;;;;;;5052347;28;19932;-61
2023/06/24 03:45:38;;;;;;;;;;;;;;;;;;5052008;28;20277;-61
2023/06/24 03:48:05;;;;;;;;;;;;;;;;;;5052275;28;19924;-61
2023/06/24 03:50:31;;;;;;;;;;;;;;;;;;5051358;28;20376;-61
2023/06/24 03:52:57;;;;;;;;;;;;;;;;;;5051990;28;19921;-61
2023/06/24 03:55:24;;;;;;;;;;;;;;;;;;5051884;28;19928;-61
2023/06/24 03:57:50;;;;;;;;;;;;;;;;;;5051797;28;19924;-61
2023/06/24 04:00:17;;;;;;;;;;;;;;;;;;5052131;28;19928;-62
2023/06/24 04:02:45;;;;;;;;;;;;;;;;;;5052131;28;19956;-61
2023/06/24 04:05:11;;;;;;;;;;;;;;;;;;5052001;28;19928;-61
2023/06/24 04:07:38;;;;;;;;;;;;;;;;;;5052008;28;19947;-61
2023/06/24 04:10:08;;;;;;;;;;;;;;;;;;5051979;28;19932;-61
2023/06/24 04:12:35;;;;;;;;;;;;;;;;;;5052030;28;19978;-61
2023/06/24 04:15:03;;;;;;;;;;;;;;;;;;5051994;28;20380;-61
2023/06/24 04:17:29;;;;;;;;;;;;;;;;;;5051783;28;19956;-60
2023/06/24 04:19:55;;;;;;;;;;;;;;;;;;5051982;28;19920;-61
2023/06/24 04:22:22;;;;;;;;;;;;;;;;;;5051945;28;19928;-61
2023/06/24 04:24:48;;;;;;;;;;;;;;;;;;5051576;28;19924;-62
2023/06/24 04:27:14;;;;;;;;;;;;;;;;;;5052072;28;19924;-61
2023/06/24 04:29:41;;;;;;;;;;;;;;;;;;5050322;28;19924;-61
2023/06/24 04:32:07;;;;;;;;;;;;;;;;;;5051854;28;20369;-61
2023/06/24 04:34:33;;;;;;;;;;;;;;;;;;5051853;28;19928;-61
2023/06/24 04:37:00;;;;;;;;;;;;;;;;;;5051835;28;19924;-61
2023/06/24 04:39:26;;;;;;;;;;;;;;;;;;5051524;28;19924;-62
2023/06/24 04:41:52;;;;;;;;;;;;;;;;;;5051467;28;20347;-61
2023/06/24 04:44:20;;;;;;;;;;;;;;;;;;5051647;28;20459;-62
2023/06/24 04:46:46;;;;;;;;;;;;;;;;;;5051647;28;19921;-61
2023/06/24 04:49:12;;;;;;;;;;;;;;;;;;5051327;28;20292;-61
2023/06/24 04:51:40;;;;;;;;;;;;;;;;;;5051587;28;19966;-61
2023/06/24 04:54:07;;;;;;;;;;;;;;;;;;5051881;28;19924;-61
2023/06/24 04:56:34;;;;;;;;;;;;;;;;;;5051555;28;19936;-60
2023/06/24 04:59:00;;;;;;;;;;;;;;;;;;5051390;28;19927;-61
2023/06/24 05:01:27;;;;;;;;;;;;;;;;;;5051495;28;19920;-61
2023/06/24 05:03:53;;;;;;;;;;;;;;;;;;5054310;28;20439;-61
2023/06/24 05:06:19;;;;;;;;;;;;;;;;;;5054862;28;19924;-61
2023/06/24 05:08:46;;;;;;;;;;;;;;;;;;5055058;28;19925;-61
2023/06/24 05:11:12;;;;;;;;;;;;;;;;;;5055034;28;19921;-61
2023/06/24 05:13:38;;;;;;;;;;;;;;;;;;5055022;28;19920;-61
2023/06/24 05:16:05;;;;;;;;;;;;;;;;;;5054828;28;19920;-61
2023/06/24 05:18:31;;;;;;;;;;;;;;;;;;5054739;28;20430;-61
2023/06/24 05:20:58;;;;;;;;;;;;;;;;;;5054492;28;19929;-61
2023/06/24 05:23:24;;;;;;;;;;;;;;;;;;5054772;28;19928;-61
2023/06/24 05:25:50;;;;;;;;;;;;;;;;;;5054819;28;19970;-61
2023/06/24 05:28:17;;;;;;;;;;;;;;;;;;5054644;28;19928;-62
2023/06/24 05:30:43;;;;;;;;;;;;;;;;;;5054583;28;19924;-61
2023/06/24 05:33:09;;;;;;;;;;;;;;;;;;5054478;28;20328;-61
2023/06/24 05:35:39;;;;;;;;;;;;;;;;;;5054577;28;19931;-61
2023/06/24 05:38:06;;;;;;;;;;;;;;;;;;5054589;28;19924;-60
2023/06/24 05:40:32;;;;;;;;;;;;;;;;;;5054307;28;19933;-61
2023/06/24 05:42:58;;;;;;;;;;;;;;;;;;5054434;28;19929;-61
2023/06/24 05:45:25;;;;;;;;;;;;;;;;;;5054265;28;19927;-61
2023/06/24 05:47:51;;;;;;;;;;;;;;;;;;5054247;28;20319;-61
2023/06/24 05:50:17;;;;;;;;;;;;;;;;;;5053996;28;19940;-61
2023/06/24 05:52:44;;;;;;;;;;;;;;;;;;5054012;28;19944;-61
2023/06/24 05:55:10;;;;;;;;;;;;;;;;;;5054352;28;19925;-61
2023/06/24 05:57:37;;;;;;;;;;;;;;;;;;5053894;28;19978;-61
2023/06/24 06:00:04;;;;;;;;;;;;;;;;;;5054122;28;19966;-62
2023/06/24 06:02:30;;;;;;;;;;;;;;;;;;5053804;28;19924;-61
2023/06/24 06:04:57;;;;;;;;;;;;;;;;;;5054036;28;19931;-61
2023/06/24 06:07:23;;;;;;;;;;;;;;;;;;5053562;28;20289;-61
2023/06/24 06:09:49;;;;;;;;;;;;;;;;;;5053956;28;19960;-61
2023/06/24 06:12:16;;;;;;;;;;;;;;;;;;5053805;28;19928;-61
2023/06/24 06:14:42;;;;;;;;;;;;;;;;;;5049198;28;19929;-61
2023/06/24 06:17:08;;;;;;;;;;;;;;;;;;5044420;28;19929;-61
2023/06/24 06:19:35;;;;;;;;;;;;;;;;;;5053488;28;20277;-61
2023/06/24 06:22:01;;;;;;;;;;;;;;;;;;5053710;28;19926;-61
2023/06/24 06:24:27;;;;;;;;;;;;;;;;;;5053716;28;19921;-61
2023/06/24 06:26:54;;;;;;;;;;;;;;;;;;5053473;28;19986;-61
2023/06/24 06:29:20;;;;;;;;;;;;;;;;;;5053415;28;19967;-61
2023/06/24 06:31:46;;;;;;;;;;;;;;;;;;5053181;28;20376;-61
2023/06/24 06:34:13;;;;;;;;;;;;;;;;;;5053442;28;20008;-60
2023/06/24 06:36:39;;;;;;;;;;;;;;;;;;5053479;28;19931;-61
2023/06/24 06:39:06;;;;;;;;;;;;;;;;;;5053432;28;19954;-61
2023/06/24 06:41:32;;;;;;;;;;;;;;;;;;5053595;28;20281;-61
2023/06/24 06:43:58;;;;;;;;;;;;;;;;;;5053056;28;20392;-62
2023/06/24 06:46:25;;;;;;;;;;;;;;;;;;5052953;28;19931;-61
2023/06/24 06:48:51;;;;;;;;;;;;;;;;;;5053036;28;19925;-61
2023/06/24 06:51:18;;;;;;;;;;;;;;;;;;5053040;28;19971;-61
2023/06/24 06:53:45;;;;;;;;;;;;;;;;;;5052808;28;20423;-61
2023/06/24 06:56:11;;;;;;;;;;;;;;;;;;5053210;28;19978;-62
2023/06/24 06:58:38;;;;;;;;;;;;;;;;;;5052887;28;19924;-62
2023/06/24 07:01:05;;;;;;;;;;;;;;;;;;5052696;28;19924;-61
2023/06/24 07:03:32;;;;;;;;;;;;;;;;;;5052753;28;19924;-61
2023/06/24 07:05:58;;;;;;;;;;;;;;;;;;5052646;28;20318;-61
2023/06/24 07:08:25;;;;;;;;;;;;;;;;;;5052710;28;19925;-62
2023/06/24 07:10:51;;;;;;;;;;;;;;;;;;5052730;28;19920;-61
2023/06/24 07:13:17;;;;;;;;;;;;;;;;;;5052488;28;19994;-61
2023/06/24 07:15:44;;;;;;;;;;;;;;;;;;5052794;28;19952;-61
2023/06/24 07:18:10;;;;;;;;;;;;;;;;;;5052412;28;19928;-61
2023/06/24 07:20:36;;;;;;;;;;;;;;;;;;5041456;28;19925;-61
2023/06/24 07:23:04;;;;;;;;;;;;;;;;;;5049302;28;19921;-61
2023/06/24 07:25:30;;;;;;;;;;;;;;;;;;5051393;28;19920;-61
2023/06/24 07:27:57;;;;;;;;;;;;;;;;;;5051878;28;19974;-61
2023/06/24 07:30:23;;;;;;;;;;;;;;;;;;5052095;28;19925;-62
2023/06/24 07:32:50;;;;;;;;;;;;;;;;;;5040730;28;19969;-63
2023/06/24 07:35:16;;;;;;;;;;;;;;;;;;5049003;28;19924;-61
2023/06/24 07:37:42;;;;;;;;;;;;;;;;;;5052196;28;19924;-61
2023/06/24 07:40:09;;;;;;;;;;;;;;;;;;5052176;28;19928;-61
2023/06/24 07:42:35;;;;;;;;;;;;;;;;;;5052135;28;20335;-62
2023/06/24 07:45:01;;;;;;;;;;;;;;;;;;5051818;28;20376;-62
2023/06/24 07:47:28;;;;;;;;;;;;;;;;;;5050683;28;19944;-63
2023/06/24 07:49:54;;;;;;;;;;;;;;;;;;5050728;28;19983;-63
2023/06/24 07:52:20;;;;;;;;;;;;;;;;;;5050579;28;20376;-61
2023/06/24 07:54:47;;;;;;;;;;;;;;;;;;5050390;28;19931;-62
2023/06/24 07:57:13;;;;;;;;;;;;;;;;;;5050698;28;19940;-62
2023/06/24 07:59:39;;;;;;;;;;;;;;;;;;5050325;28;19998;-61
2023/06/24 08:02:06;;;;;;;;;;;;;;;;;;5049872;28;19925;-61
2023/06/24 08:04:32;;;;;;;;;;;;;;;;;;5049572;28;20414;-61
2023/06/24 08:06:59;;;;;;;;;;;;;;;;;;5041780;28;19928;-63
2023/06/24 08:09:25;;;;;;;;;;;;;;;;;;5040936;28;19921;-62
2023/06/24 08:11:52;;;;;;;;;;;;;;;;;;5031235;28;19927;-62
2023/06/24 08:14:18;;;;;;;;;;;;;;;;;;5031380;28;19984;-62
2023/06/24 08:16:44;;;;;;;;;;;;;;;;;;5031623;28;19936;-62
2023/06/24 08:19:11;;;;;;;;;;;;;;;;;;5031304;28;20439;-62
2023/06/24 08:21:37;;;;;;;;;;;;;;;;;;5031346;28;19932;-64
2023/06/24 08:24:04;;;;;;;;;;;;;;;;;;5038792;28;19996;-61
2023/06/24 08:26:30;;;;;;;;;;;;;;;;;;5030974;28;19921;-63
2023/06/24 08:28:58;;;;;;;;;;;;;;;;;;5031524;28;19947;-62
2023/06/24 08:31:25;;;;;;;;;;;;;;;;;;5031301;28;19988;-62
2023/06/24 08:33:51;;;;;;;;;;;;;;;;;;5031257;28;20007;-62
2023/06/24 08:36:17;;;;;;;;;;;;;;;;;;5029599;28;20328;-63
2023/06/24 08:38:44;;;;;;;;;;;;;;;;;;5033917;28;19979;-62
2023/06/24 08:41:10;;;;;;;;;;;;;;;;;;5034789;28;20369;-61
2023/06/24 08:43:38;;;;;;;;;;;;;;;;;;5034459;28;19925;-64
2023/06/24 08:46:05;;;;;;;;;;;;;;;;;;5033276;28;20266;-63
2023/06/24 08:48:31;;;;;;;;;;;;;;;;;;5035252;28;20363;-62
2023/06/24 08:50:58;;;;;;;;;;;;;;;;;;5034344;28;20295;-64
2023/06/24 08:53:24;;;;;;;;;;;;;;;;;;5034413;28;19925;-61
2023/06/24 08:55:51;;;;;;;;;;;;;;;;;;5034985;28;19932;-61
2023/06/24 08:58:17;;;;;;;;;;;;;;;;;;5034609;28;20331;-61
2023/06/24 09:00:43;;;;;;;;;;;;;;;;;;5034651;28;19982;-61
2023/06/24 09:03:09;;;;;;;;;;;;;;;;;;5034754;28;19925;-62
2023/06/24 09:05:36;;;;;;;;;;;;;;;;;;5034714;28;19932;-62
2023/06/24 09:08:03;;;;;;;;;;;;;;;;;;5034234;28;19928;-62
2023/06/24 09:10:30;;;;;;;;;;;;;;;;;;5034637;28;20365;-62
2023/06/24 09:12:56;;;;;;;;;;;;;;;;;;5034626;28;19983;-63
2023/06/24 09:15:22;;;;;;;;;;;;;;;;;;5050394;28;19925;-61
2023/06/24 09:17:49;;;;;;;;;;;;;;;;;;5054313;28;19975;-62
2023/06/24 09:20:19;;;;;;;;;;;;;;;;;;5037103;28;19936;-63
2023/06/24 09:22:46;;;;;;;;;;;;;;;;;;5034221;28;20407;-62
2023/06/24 09:25:12;;;;;;;;;;;;;;;;;;5051624;28;20292;-62
2023/06/24 09:27:39;;;;;;;;;;;;;;;;;;5049249;28;20292;-61
2023/06/24 09:30:05;;;;;;;;;;;;;;;;;;5053867;28;19929;-61
2023/06/24 09:32:31;;;;;;;;;;;;;;;;;;5053833;28;20368;-62
2023/06/24 09:34:58;;;;;;;;;;;;;;;;;;5037326;28;19966;-62
2023/06/24 09:37:30;;;;;;;;;;;;;;;;;;5046106;28;19921;-62
2023/06/24 09:39:57;;;;;;;;;;;;;;;;;;5033823;28;20036;-62
2023/06/24 09:42:23;;;;;;;;;;;;;;;;;;5042843;28;19936;-62
2023/06/24 09:44:50;;;;;;;;;;;;;;;;;;5031611;28;19931;-62
2023/06/24 09:47:16;;;;;;;;;;;;;;;;;;5032118;28;19929;-63
2023/06/24 09:49:42;;;;;;;;;;;;;;;;;;5032767;28;19928;-62
2023/06/24 09:52:09;;;;;;;;;;;;;;;;;;5033097;28;19921;-62
2023/06/24 09:54:35;;;;;;;;;;;;;;;;;;5033476;28;19925;-62
2023/06/24 09:57:02;;;;;;;;;;;;;;;;;;5033233;28;19920;-62
2023/06/24 09:59:28;;;;;;;;;;;;;;;;;;5034231;28;19925;-62
2023/06/24 10:01:54;;;;;;;;;;;;;;;;;;5048905;28;19925;-62
2023/06/24 10:04:24;;;;;;;;;;;;;;;;;;5053845;28;19978;-63
2023/06/24 10:06:50;;;;;;;;;;;;;;;;;;5054038;28;19931;-63
2023/06/24 10:09:17;;;;;;;;;;;;;;;;;;5053807;28;19929;-63
2023/06/24 10:11:44;;;;;;;;;;;;;;;;;;5039357;28;20392;-62
2023/06/24 10:14:10;;;;;;;;;;;;;;;;;;5053990;28;19966;-63
2023/06/24 10:16:36;;;;;;;;;;;;;;;;;;5051734;28;19925;-63
2023/06/24 10:19:03;;;;;;;;;;;;;;;;;;5053556;28;19925;-63
2023/06/24 10:21:29;;;;;;;;;;;;;;;;;;5053689;28;20129;-62
2023/06/24 10:23:55;;;;;;;;;;;;;;;;;;5053776;28;19924;-62
2023/06/24 10:26:23;;;;;;;;;;;;;;;;;;5053640;28;20434;-62
2023/06/24 10:28:49;;;;;;;;;;;;;;;;;;5053538;28;19925;-62
2023/06/24 10:31:15;;;;;;;;;;;;;;;;;;5053119;28;19929;-62
2023/06/24 10:33:42;;;;;;;;;;;;;;;;;;5051944;28;20011;-62
2023/06/24 10:36:08;;;;;;;;;;;;;;;;;;5053397;28;19966;-62
2023/06/24 10:38:35;;;;;;;;;;;;;;;;;;5053211;28;19926;-63
2023/06/24 10:41:01;;;;;;;;;;;;;;;;;;5053269;28;19924;-63
2023/06/24 10:43:27;;;;;;;;;;;;;;;;;;5053412;28;19929;-63
2023/06/24 10:45:54;;;;;;;;;;;;;;;;;;5053241;28;19928;-63
2023/06/24 10:48:20;;;;;;;;;;;;;;;;;;5052788;28;20434;-63
2023/06/24 10:50:46;;;;;;;;;;;;;;;;;;5053148;28;19920;-62
2023/06/24 10:53:13;;;;;;;;;;;;;;;;;;5052841;28;20384;-62
2023/06/24 10:55:40;;;;;;;;;;;;;;;;;;5052768;28;19921;-63
2023/06/24 10:58:07;;;;;;;;;;;;;;;;;;5052892;28;19920;-62
2023/06/24 11:00:36;;;;;;;;;;;;;;;;;;5051803;28;19931;-63
2023/06/24 11:03:03;;;;;;;;;;;;;;;;;;5038247;28;20285;-62
2023/06/24 11:05:29;;;;;;;;;;;;;;;;;;5052916;28;19931;-62
2023/06/24 11:07:55;;;;;;;;;;;;;;;;;;5040737;28;19929;-63
2023/06/24 11:10:22;;;;;;;;;;;;;;;;;;5032353;28;20441;-62
2023/06/24 11:12:48;;;;;;;;;;;;;;;;;;5037343;28;19921;-62
2023/06/24 11:15:15;;;;;;;;;;;;;;;;;;5052131;28;19920;-63
2023/06/24 11:17:41;;;;;;;;;;;;;;;;;;5037347;28;19921;-62
2023/06/24 11:20:08;;;;;;;;;;;;;;;;;;5038117;28;19932;-62
2023/06/24 11:22:34;;;;;;;;;;;;;;;;;;5041505;28;19925;-65
2023/06/24 11:25:01;;;;;;;;;;;;;;;;;;5035596;28;19930;-64
2023/06/24 11:27:27;;;;;;;;;;;;;;;;;;5031668;28;19944;-64
2023/06/24 11:29:54;;;;;;;;;;;;;;;;;;5032316;28;19929;-65
2023/06/24 11:32:20;;;;;;;;;;;;;;;;;;5037391;28;20399;-63
2023/06/24 11:34:46;;;;;;;;;;;;;;;;;;5052014;28;19929;-63
2023/06/24 11:37:13;;;;;;;;;;;;;;;;;;5052092;28;19920;-63
2023/06/24 11:39:39;;;;;;;;;;;;;;;;;;5040957;28;19921;-63
2023/06/24 11:42:05;;;;;;;;;;;;;;;;;;5033159;28;19933;-63
2023/06/24 11:44:32;;;;;;;;;;;;;;;;;;5031243;28;19929;-67
2023/06/24 11:46:58;;;;;;;;;;;;;;;;;;5041732;28;19934;-63
2023/06/24 11:49:25;;;;;;;;;;;;;;;;;;5051507;28;20364;-63
2023/06/24 11:51:52;;;;;;;;;;;;;;;;;;5051426;28;20368;-63
2023/06/24 11:54:19;;;;;;;;;;;;;;;;;;5051565;28;20406;-66
2023/06/24 11:56:46;;;;;;;;;;;;;;;;;;5051638;28;19947;-65
2023/06/24 11:59:12;;;;;;;;;;;;;;;;;;5051407;28;19924;-65
2023/06/24 12:01:39;;;;;;;;;;;;;;;;;;5051593;28;19924;-64
2023/06/24 12:04:05;;;;;;;;;;;;;;;;;;5051376;28;19925;-64
2023/06/24 12:06:32;;;;;;;;;;;;;;;;;;5031285;28;20365;-66
2023/06/24 12:08:58;;;;;;;;;;;;;;;;;;5031608;28;19921;-66
2023/06/24 12:11:24;;;;;;;;;;;;;;;;;;5046008;28;19924;-66
2023/06/24 12:13:51;;;;;;;;;;;;;;;;;;5055840;28;20035;-66
2023/06/24 12:16:17;;;;;;;;;;;;;;;;;;5055449;28;19925;-65
2023/06/24 12:18:43;;;;;;;;;;;;;;;;;;5046830;28;19920;-66
2023/06/24 12:21:10;;;;;;;;;;;;;;;;;;5035335;28;19920;-67
2023/06/24 12:23:36;;;;;;;;;;;;;;;;;;5039354;28;20289;-66
2023/06/24 12:26:02;;;;;;;;;;;;;;;;;;5035919;28;19932;-65
2023/06/24 12:28:29;;;;;;;;;;;;;;;;;;5035217;28;19931;-67
2023/06/24 12:30:55;;;;;;;;;;;;;;;;;;5049857;28;19932;-65
2023/06/24 12:33:22;;;;;;;;;;;;;;;;;;5055358;28;19928;-63
2023/06/24 12:35:49;;;;;;;;;;;;;;;;;;5055359;28;19924;-63
2023/06/24 12:38:15;;;;;;;;;;;;;;;;;;5049398;28;19925;-63
2023/06/24 12:40:42;;;;;;;;;;;;;;;;;;5046927;28;20317;-64
2023/06/24 12:43:08;;;;;;;;;;;;;;;;;;5055305;28;19921;-63
2023/06/24 12:45:35;;;;;;;;;;;;;;;;;;5055229;28;19928;-63
2023/06/24 12:48:01;;;;;;;;;;;;;;;;;;5055246;28;19947;-63
2023/06/24 12:50:28;;;;;;;;;;;;;;;;;;5055036;28;19925;-63
2023/06/24 12:52:54;;;;;;;;;;;;;;;;;;5050018;28;19921;-63
2023/06/24 12:55:20;;;;;;;;;;;;;;;;;;5053932;28;19925;-63
2023/06/24 12:57:47;;;;;;;;;;;;;;;;;;5054112;28;19928;-63
2023/06/24 13:00:13;;;;;;;;;;;;;;;;;;5054222;28;20305;-64
2023/06/24 13:02:40;;;;;;;;;;;;;;;;;;5054796;28;19928;-63
2023/06/24 13:05:06;;;;;;;;;;;;;;;;;;5055021;28;19928;-63
2023/06/24 13:07:32;;;;;;;;;;;;;;;;;;5054848;28;19928;-63
2023/06/24 13:09:59;;;;;;;;;;;;;;;;;;5054855;28;20349;-63
2023/06/24 13:12:25;;;;;;;;;;;;;;;;;;5055104;28;19971;-63
2023/06/24 13:14:52;;;;;;;;;;;;;;;;;;5037688;28;19925;-64
2023/06/24 13:17:18;;;;;;;;;;;;;;;;;;5037045;28;19974;-63
2023/06/24 13:19:45;;;;;;;;;;;;;;;;;;5054399;28;19924;-64
2023/06/24 13:22:11;;;;;;;;;;;;;;;;;;5054039;28;19952;-63
2023/06/24 13:24:38;;;;;;;;;;;;;;;;;;5053208;28;20296;-63
2023/06/24 13:27:04;;;;;;;;;;;;;;;;;;5052235;28;20100;-61
2023/06/24 13:29:31;;;;;;;;;;;;;;;;;;5054107;28;19921;-61
2023/06/24 13:31:57;;;;;;;;;;;;;;;;;;5053849;28;20301;-61
2023/06/24 13:34:24;;;;;;;;;;;;;;;;;;5053902;28;20442;-61
2023/06/24 13:36:50;;;;;;;;;;;;;;;;;;5053799;28;20362;-61
2023/06/24 13:39:16;;;;;;;;;;;;;;;;;;5053879;28;19931;-62
2023/06/24 13:41:43;;;;;;;;;;;;;;;;;;5053853;28;19994;-61
2023/06/24 13:45:44;;;;;;;0.73;0.52;;;;;;;;;;5068247;28;20376;-62
2023/06/24 13:48:11;;;;;;;1.52;0.80;;;;;;;;;;5067370;28;20420;-63
2023/06/24 13:50:37;;;;;;;1.10;0.50;;;;;;;;;;5068228;28;20389;-62
2023/06/24 13:53:04;;;;;;;0.68;0.60;;;;;;;;;;5067741;28;20493;-63
2023/06/24 13:55:31;;;;;;;1.25;0.70;;;;;;;;;;5068758;28;20048;-62
2023/06/24 13:57:58;;;;;;;0.70;0.60;;;;;;;;;;5067944;28;20060;-63
2023/06/24 14:00:25;;;;;;;8.27;1.30;;;;;;;;;;5068004;28;20564;-62
2023/06/24 14:02:51;;;;;;;1.00;0.52;;;;;;;;;;5068157;28;20394;-62
2023/06/24 14:05:18;;;;;;;1.30;0.50;;;;;;;;;;5068208;28;20132;-62
2023/06/24 14:07:45;;;;;;;0.70;0.68;;;;;;;;;;5066533;28;20068;-62
2023/06/24 14:10:11;;;;;;;0.60;0.60;;;;;;;;;;5049206;28;20091;-62
2023/06/24 14:12:38;;;;;;;0.85;0.68;;;;;;;;;;5068084;28;20044;-62
2023/06/24 14:15:05;;;;;;;0.60;0.60;;;;;;;;;;5068009;28;20056;-62
2023/06/24 14:17:31;;;;;;;0.77;0.77;;;;;;;;;;5068128;28;20056;-62
2023/06/24 14:19:58;;;;;;;1.27;0.70;;;;;;;;;;5067931;28;20131;-62
2023/06/24 14:22:26;;;;;;;0.60;0.60;;;;;;;;;;5067702;28;20044;-62
2023/06/24 14:24:52;;;;;;;0.70;0.70;;;;;;;;;;5067848;28;20053;-63
2023/06/24 14:27:19;;;;;;;0.70;0.68;;;;;;;;;;5065851;28;20140;-63
2023/06/24 14:29:45;;;;;;;1.10;1.00;;;;;;;;;;5067578;28;20416;-62
2023/06/24 14:32:12;;;;;;;1.10;1.10;;;;;;;;;;5067547;28;20123;-62
2023/06/24 14:34:38;;;;;;;1.33;1.08;;;;;;;;;;5067373;28;20059;-61
2023/06/24 14:37:05;;;;;;;1.50;1.40;;;;;;;;;;5067370;28;20071;-62
2023/06/24 14:39:31;;;;;;;1.33;1.23;;;;;;;;;;5067321;28;20053;-62
2023/06/24 14:41:58;;;;;;;1.42;1.30;;;;;;;;;;5067370;28;20056;-62
2023/06/24 14:44:24;;;;;;;;;;;;;;;;;;5058691;28;20053;-61
2023/06/24 14:46:50;;;;;;;1.77;1.50;;;;;;;;;;5061525;28;19920;-62
2023/06/24 14:49:17;;;;;;;1.58;1.48;;;;;;;;;;5067138;28;20117;-62
2023/06/24 14:51:43;;;;;;;1.80;1.70;;;;;;;;;;5067026;28;20080;-62
2023/06/24 14:54:10;;;;;;;;;;;;;;;;;;5067770;28;20122;-62
2023/06/24 14:56:36;;;;;;;1.80;1.70;;;;;;;;;;5056866;28;19921;-62
2023/06/24 14:59:03;;;;;;;1.52;1.42;;;;;;;;;;5053785;28;20057;-62
2023/06/24 15:01:29;;;;;;;;;;;;;;;;;;5043225;28;20045;-61
2023/06/24 15:03:55;;;;;;;1.20;1.20;;;;;;;;;;5036238;28;19987;-61
2023/06/24 15:06:22;;;;;;;1.70;1.60;;;;;;;;;;5041066;28;20586;-61
2023/06/24 15:08:49;;;;;;;2.70;1.60;;;;;;;;;;5050704;28;20049;-61
2023/06/24 15:11:15;;;;;;;1.88;1.77;;;;;;;;;;5052349;28;20037;-61
2023/06/24 15:13:41;;;;;;;;;;;;;;;;;;5052728;28;20045;-61
2023/06/24 15:16:08;;;;;;;1.50;1.50;;;;;;;;;;5052534;28;19936;-61
2023/06/24 15:18:34;;;;;;;;;;;;;;;;;;5052852;28;20061;-61
2023/06/24 15:21:00;;;;;;;1.70;1.35;;;;;;;;;;5052885;28;20421;-61
2023/06/24 15:23:27;;;;;;;2.40;1.75;;;;;;;;;;5054014;28;20060;-61
2023/06/24 15:25:54;;;;;;;1.70;1.60;;;;;;;;;;5053768;28;20638;-61
2023/06/24 15:28:20;;;;;;;1.77;1.50;;;;;;;;;;5053838;28;20127;-61
2023/06/24 15:30:47;;;;;;;1.40;1.30;;;;;;;;;;5054068;28;20094;-61
2023/06/24 15:33:14;;;;;;;1.60;1.50;;;;;;;;;;5054038;28;20099;-61
2023/06/24 15:35:40;;;;;;;2.88;1.50;;;;;;;;;;5053511;28;20139;-61
2023/06/24 15:38:07;;;;;;;2.13;1.50;;;;;;;;;;5053838;28;20179;-62
2023/06/24 15:40:33;;;;;;;1.65;1.55;;;;;;;;;;5050821;28;20053;-61
2023/06/24 15:43:01;;;;;;;1.48;1.38;;;;;;;;;;5043289;28;20509;-61
2023/06/24 15:45:27;;;;;;;1.65;1.38;;;;;;;;;;5053189;28;20493;-61
2023/06/24 15:47:54;;;;;;;1.92;1.33;;;;;;;;;;5053107;28;20049;-61
2023/06/24 15:50:20;;;;;;;1.30;1.30;;;;;;;;;;5053251;28;20049;-61
2023/06/24 15:52:47;;;;;;;;;;;;;;;;;;5053765;28;20045;-61
2023/06/24 15:55:13;;;;;;;2.35;1.50;;;;;;;;;;5053242;28;19927;-61
2023/06/24 15:57:40;;;;;;;;;;;;;;;;;;5053701;28;20526;-61
2023/06/24 16:00:06;;;;;;;1.38;1.23;;;;;;;;;;5053182;28;20384;-61
2023/06/24 16:02:32;;;;;;;;;;;;;;;;;;5053240;28;20064;-61
2023/06/24 16:05:04;;;;;;;1.73;1.17;;;;;;;;;;5053053;28;19920;-61
2023/06/24 16:07:32;;;;;;;1.50;1.40;;;;;;;;;;5018841;28;20042;-61
2023/06/24 16:09:58;;;;;;;1.60;1.50;;;;;;;;;;5032553;28;20406;-61
2023/06/24 16:12:25;;;;;;;;;;;;;;;;;;5032468;28;20122;-61
2023/06/24 16:14:52;;;;;;;2.22;1.75;;;;;;;;;;5031540;28;20390;-61
2023/06/24 16:17:18;;;;;;;;;;;;;;;;;;5051639;28;20496;-59
2023/06/24 16:19:45;;;;;;;2.25;1.60;;;;;;;;;;5052461;28;19924;-61
2023/06/24 16:22:11;;;;;;;1.27;1.17;;;;;;;;;;5051964;28;20045;-61